sensor_id;sensor_type;location;lat;lon;timestamp;P1;P2;P0
24012;PMS7003;12220;50.194;18.948;2023-12-20T00:01:18;12;11;7
24012;PMS7003;12220;50.194;18.948;2023-12-20T00:03:22;14;12;9
24012;PMS7003;12220;50.194;18.948;2023-12-20T00:05:30;12;9;5
24012;PMS7003;12220;50.194;18.948;2023-12-20T00:07:38;12;12;9
24012;PMS7003;12220;50.194;18.948;2023-12-20T00:09:40;11;11;8
24012;PMS7003;12220;50.194;18.948;2023-12-20T00:11:41;12;10;8
24012;PMS7003;12220;50.194;18.948;2023-12-20T00:13:45;11;11;8
24012;PMS7003;12220;50.194;18.948;2023-12-20T00:15:46;12;12;9
24012;PMS7003;12220;50.194;18.948;2023-12-20T00:17:48;12;12;9
24012;PMS7003;12220;50.194;18.948;2023-12-20T00:19:49;8;8;6
24012;PMS7003;12220;50.194;18.948;2023-12-20T00:22:00;12;10;7
24012;PMS7003;12220;50.194;18.948;2023-12-20T00:24:02;8;8;6
24012;PMS7003;12220;50.194;18.948;2023-12-20T00:26:04;10;10;7
24012;PMS7003;12220;50.194;18.948;2023-12-20T00:28:05;7;7;6
24012;PMS7003;12220;50.194;18.948;2023-12-20T00:30:20;9;9;8
24012;PMS7003;12220;50.194;18.948;2023-12-20T00:32:21;8;8;6
24012;PMS7003;12220;50.194;18.948;2023-12-20T00:34:22;11;9;8
24012;PMS7003;12220;50.194;18.948;2023-12-20T00:36:24;8;7;7
24012;PMS7003;12220;50.194;18.948;2023-12-20T00:38:30;10;7;5
24012;PMS7003;12220;50.194;18.948;2023-12-20T00:40:33;10;10;7
24012;PMS7003;12220;50.194;18.948;2023-12-20T00:42:34;10;8;6
24012;PMS7003;12220;50.194;18.948;2023-12-20T00:44:39;7;7;5
24012;PMS7003;12220;50.194;18.948;2023-12-20T00:46:45;8;8;6
24012;PMS7003;12220;50.194;18.948;2023-12-20T00:48:48;9;7;6
24012;PMS7003;12220;50.194;18.948;2023-12-20T00:50:50;10;10;8
24012;PMS7003;12220;50.194;18.948;2023-12-20T00:52:51;11;8;7
24012;PMS7003;12220;50.194;18.948;2023-12-20T00:55:00;10;10;7
24012;PMS7003;12220;50.194;18.948;2023-12-20T00:57:01;10;8;5
24012;PMS7003;12220;50.194;18.948;2023-12-20T00:59:11;9;9;7
24012;PMS7003;12220;50.194;18.948;2023-12-20T01:01:12;8;8;6
24012;PMS7003;12220;50.194;18.948;2023-12-20T01:03:15;12;11;9
24012;PMS7003;12220;50.194;18.948;2023-12-20T01:05:18;9;8;7
24012;PMS7003;12220;50.194;18.948;2023-12-20T01:07:23;12;9;8
24012;PMS7003;12220;50.194;18.948;2023-12-20T01:09:31;9;8;6
24012;PMS7003;12220;50.194;18.948;2023-12-20T01:11:32;9;7;6
24012;PMS7003;12220;50.194;18.948;2023-12-20T01:13:37;13;11;9
24012;PMS7003;12220;50.194;18.948;2023-12-20T01:15:38;11;10;8
24012;PMS7003;12220;50.194;18.948;2023-12-20T01:17:40;9;8;6
24012;PMS7003;12220;50.194;18.948;2023-12-20T01:19:46;12;12;9
24012;PMS7003;12220;50.194;18.948;2023-12-20T01:21:47;8;8;7
24012;PMS7003;12220;50.194;18.948;2023-12-20T01:23:48;6;6;5
24012;PMS7003;12220;50.194;18.948;2023-12-20T01:26:01;12;11;8
24012;PMS7003;12220;50.194;18.948;2023-12-20T01:28:08;11;10;8
24012;PMS7003;12220;50.194;18.948;2023-12-20T01:30:09;10;9;7
24012;PMS7003;12220;50.194;18.948;2023-12-20T01:32:11;11;11;8
24012;PMS7003;12220;50.194;18.948;2023-12-20T01:34:17;11;9;6
24012;PMS7003;12220;50.194;18.948;2023-12-20T01:36:19;7;7;5
24012;PMS7003;12220;50.194;18.948;2023-12-20T01:38:20;9;7;4
24012;PMS7003;12220;50.194;18.948;2023-12-20T01:40:22;9;7;7
24012;PMS7003;12220;50.194;18.948;2023-12-20T01:42:24;14;11;9
24012;PMS7003;12220;50.194;18.948;2023-12-20T01:44:31;10;9;7
24012;PMS7003;12220;50.194;18.948;2023-12-20T01:46:32;9;9;6
24012;PMS7003;12220;50.194;18.948;2023-12-20T01:48:34;14;7;6
24012;PMS7003;12220;50.194;18.948;2023-12-20T01:50:36;14;13;9
24012;PMS7003;12220;50.194;18.948;2023-12-20T01:52:46;14;14;11
24012;PMS7003;12220;50.194;18.948;2023-12-20T01:54:47;13;13;11
24012;PMS7003;12220;50.194;18.948;2023-12-20T01:56:49;15;13;11
24012;PMS7003;12220;50.194;18.948;2023-12-20T01:58:54;8;8;6
24012;PMS7003;12220;50.194;18.948;2023-12-20T02:01:08;8;7;6
24012;PMS7003;12220;50.194;18.948;2023-12-20T02:03:09;12;9;8
24012;PMS7003;12220;50.194;18.948;2023-12-20T02:05:13;7;7;5
24012;PMS7003;12220;50.194;18.948;2023-12-20T02:07:14;12;12;9
24012;PMS7003;12220;50.194;18.948;2023-12-20T02:09:18;14;12;8
24012;PMS7003;12220;50.194;18.948;2023-12-20T02:11:20;10;9;7
24012;PMS7003;12220;50.194;18.948;2023-12-20T02:13:22;9;7;6
24012;PMS7003;12220;50.194;18.948;2023-12-20T02:15:23;7;7;6
24012;PMS7003;12220;50.194;18.948;2023-12-20T02:17:33;15;9;8
24012;PMS7003;12220;50.194;18.948;2023-12-20T02:19:35;10;9;8
24012;PMS7003;12220;50.194;18.948;2023-12-20T02:21:39;8;8;7
24012;PMS7003;12220;50.194;18.948;2023-12-20T02:23:40;13;8;7
24012;PMS7003;12220;50.194;18.948;2023-12-20T02:25:48;9;9;8
24012;PMS7003;12220;50.194;18.948;2023-12-20T02:27:49;8;8;7
24012;PMS7003;12220;50.194;18.948;2023-12-20T02:29:51;10;10;8
24012;PMS7003;12220;50.194;18.948;2023-12-20T02:31:53;11;9;8
24012;PMS7003;12220;50.194;18.948;2023-12-20T02:34:03;10;9;7
24012;PMS7003;12220;50.194;18.948;2023-12-20T02:36:04;10;10;7
24012;PMS7003;12220;50.194;18.948;2023-12-20T02:38:07;5;5;4
24012;PMS7003;12220;50.194;18.948;2023-12-20T02:40:08;9;9;8
24012;PMS7003;12220;50.194;18.948;2023-12-20T02:42:18;9;9;8
24012;PMS7003;12220;50.194;18.948;2023-12-20T02:44:19;17;13;11
24012;PMS7003;12220;50.194;18.948;2023-12-20T02:46:20;14;12;10
24012;PMS7003;12220;50.194;18.948;2023-12-20T02:48:22;11;11;8
24012;PMS7003;12220;50.194;18.948;2023-12-20T02:50:33;15;14;11
24012;PMS7003;12220;50.194;18.948;2023-12-20T02:52:40;10;10;8
24012;PMS7003;12220;50.194;18.948;2023-12-20T02:54:41;9;9;7
24012;PMS7003;12220;50.194;18.948;2023-12-20T02:56:42;14;13;10
24012;PMS7003;12220;50.194;18.948;2023-12-20T02:58:48;16;15;11
24012;PMS7003;12220;50.194;18.948;2023-12-20T03:00:49;10;9;8
24012;PMS7003;12220;50.194;18.948;2023-12-20T03:02:51;11;10;7
24012;PMS7003;12220;50.194;18.948;2023-12-20T03:04:53;15;11;10
24012;PMS7003;12220;50.194;18.948;2023-12-20T03:07:03;12;10;7
24012;PMS7003;12220;50.194;18.948;2023-12-20T03:09:04;12;9;6
24012;PMS7003;12220;50.194;18.948;2023-12-20T03:11:06;11;10;6
24012;PMS7003;12220;50.194;18.948;2023-12-20T03:13:07;14;13;9
24012;PMS7003;12220;50.194;18.948;2023-12-20T03:15:18;10;9;7
24012;PMS7003;12220;50.194;18.948;2023-12-20T03:17:19;13;13;10
24012;PMS7003;12220;50.194;18.948;2023-12-20T03:19:21;12;10;8
24012;PMS7003;12220;50.194;18.948;2023-12-20T03:21:23;11;11;9
24012;PMS7003;12220;50.194;18.948;2023-12-20T03:23:33;9;7;6
24012;PMS7003;12220;50.194;18.948;2023-12-20T03:25:34;12;12;9
24012;PMS7003;12220;50.194;18.948;2023-12-20T03:27:39;14;9;7
24012;PMS7003;12220;50.194;18.948;2023-12-20T03:29:40;11;10;8
24012;PMS7003;12220;50.194;18.948;2023-12-20T03:31:48;20;16;13
24012;PMS7003;12220;50.194;18.948;2023-12-20T03:33:49;15;11;8
24012;PMS7003;12220;50.194;18.948;2023-12-20T03:35:54;15;15;11
24012;PMS7003;12220;50.194;18.948;2023-12-20T03:37:55;15;12;9
24012;PMS7003;12220;50.194;18.948;2023-12-20T03:40:03;16;16;12
24012;PMS7003;12220;50.194;18.948;2023-12-20T03:42:05;17;16;13
24012;PMS7003;12220;50.194;18.948;2023-12-20T03:44:07;12;11;9
24012;PMS7003;12220;50.194;18.948;2023-12-20T03:46:08;15;13;9
24012;PMS7003;12220;50.194;18.948;2023-12-20T03:48:18;17;14;11
24012;PMS7003;12220;50.194;18.948;2023-12-20T03:50:19;16;13;11
24012;PMS7003;12220;50.194;18.948;2023-12-20T03:52:23;14;9;9
24012;PMS7003;12220;50.194;18.948;2023-12-20T03:54:24;13;11;9
24012;PMS7003;12220;50.194;18.948;2023-12-20T03:56:33;15;13;10
24012;PMS7003;12220;50.194;18.948;2023-12-20T03:58:34;15;14;10
24012;PMS7003;12220;50.194;18.948;2023-12-20T04:00:35;11;10;8
24012;PMS7003;12220;50.194;18.948;2023-12-20T04:02:37;16;16;13
24012;PMS7003;12220;50.194;18.948;2023-12-20T04:04:48;17;17;10
24012;PMS7003;12220;50.194;18.948;2023-12-20T04:06:49;13;13;10
24012;PMS7003;12220;50.194;18.948;2023-12-20T04:08:51;9;9;8
24012;PMS7003;12220;50.194;18.948;2023-12-20T04:10:52;17;16;11
24012;PMS7003;12220;50.194;18.948;2023-12-20T04:13:03;14;14;11
24012;PMS7003;12220;50.194;18.948;2023-12-20T04:15:08;15;13;9
24012;PMS7003;12220;50.194;18.948;2023-12-20T04:17:14;11;11;7
24012;PMS7003;12220;50.194;18.948;2023-12-20T04:19:19;14;14;11
24012;PMS7003;12220;50.194;18.948;2023-12-20T04:21:20;22;16;11
24012;PMS7003;12220;50.194;18.948;2023-12-20T04:23:22;19;18;11
24012;PMS7003;12220;50.194;18.948;2023-12-20T04:25:23;17;15;12
24012;PMS7003;12220;50.194;18.948;2023-12-20T04:27:35;16;14;11
24012;PMS7003;12220;50.194;18.948;2023-12-20T04:29:34;14;12;10
24012;PMS7003;12220;50.194;18.948;2023-12-20T04:31:35;16;16;10
24012;PMS7003;12220;50.194;18.948;2023-12-20T04:33:39;13;11;10
24012;PMS7003;12220;50.194;18.948;2023-12-20T04:35:40;11;11;9
24012;PMS7003;12220;50.194;18.948;2023-12-20T04:37:48;13;12;9
24012;PMS7003;12220;50.194;18.948;2023-12-20T04:39:50;14;14;10
24012;PMS7003;12220;50.194;18.948;2023-12-20T04:41:52;15;13;10
24012;PMS7003;12220;50.194;18.948;2023-12-20T04:46:07;17;14;11
24012;PMS7003;12220;50.194;18.948;2023-12-20T04:48:08;19;16;12
24012;PMS7003;12220;50.194;18.948;2023-12-20T04:50:10;15;9;6
24012;PMS7003;12220;50.194;18.948;2023-12-20T04:52:24;19;15;12
24012;PMS7003;12220;50.194;18.948;2023-12-20T04:54:21;15;15;10
24012;PMS7003;12220;50.194;18.948;2023-12-20T04:56:23;16;16;13
24012;PMS7003;12220;50.194;18.948;2023-12-20T04:58:27;17;16;10
24012;PMS7003;12220;50.194;18.948;2023-12-20T05:00:31;18;17;13
24012;PMS7003;12220;50.194;18.948;2023-12-20T05:02:34;14;14;10
24012;PMS7003;12220;50.194;18.948;2023-12-20T05:04:36;19;16;12
24012;PMS7003;12220;50.194;18.948;2023-12-20T05:06:38;23;20;14
24012;PMS7003;12220;50.194;18.948;2023-12-20T05:08:39;20;15;12
24012;PMS7003;12220;50.194;18.948;2023-12-20T05:10:49;13;13;10
24012;PMS7003;12220;50.194;18.948;2023-12-20T05:12:50;15;13;9
24012;PMS7003;12220;50.194;18.948;2023-12-20T05:14:53;16;16;11
24012;PMS7003;12220;50.194;18.948;2023-12-20T05:16:55;13;12;8
24012;PMS7003;12220;50.194;18.948;2023-12-20T05:19:04;16;16;12
24012;PMS7003;12220;50.194;18.948;2023-12-20T05:21:08;24;23;16
24012;PMS7003;12220;50.194;18.948;2023-12-20T05:23:10;19;19;14
24012;PMS7003;12220;50.194;18.948;2023-12-20T05:25:16;26;26;18
24012;PMS7003;12220;50.194;18.948;2023-12-20T05:27:19;27;26;17
24012;PMS7003;12220;50.194;18.948;2023-12-20T05:29:22;29;24;17
24012;PMS7003;12220;50.194;18.948;2023-12-20T05:31:23;23;22;16
24012;PMS7003;12220;50.194;18.948;2023-12-20T05:33:25;27;25;16
24012;PMS7003;12220;50.194;18.948;2023-12-20T05:35:34;20;20;14
24012;PMS7003;12220;50.194;18.948;2023-12-20T05:37:35;28;25;18
24012;PMS7003;12220;50.194;18.948;2023-12-20T05:39:37;23;17;12
24012;PMS7003;12220;50.194;18.948;2023-12-20T05:41:41;25;24;17
24012;PMS7003;12220;50.194;18.948;2023-12-20T05:43:49;22;20;15
24012;PMS7003;12220;50.194;18.948;2023-12-20T05:45:51;29;24;17
24012;PMS7003;12220;50.194;18.948;2023-12-20T05:47:52;30;27;16
24012;PMS7003;12220;50.194;18.948;2023-12-20T05:49:54;28;22;15
24012;PMS7003;12220;50.194;18.948;2023-12-20T05:52:04;19;18;13
24012;PMS7003;12220;50.194;18.948;2023-12-20T05:54:05;23;20;15
24012;PMS7003;12220;50.194;18.948;2023-12-20T05:56:07;25;20;15
24012;PMS7003;12220;50.194;18.948;2023-12-20T05:58:08;25;24;14
24012;PMS7003;12220;50.194;18.948;2023-12-20T06:00:28;25;24;19
24012;PMS7003;12220;50.194;18.948;2023-12-20T06:02:28;23;22;17
24012;PMS7003;12220;50.194;18.948;2023-12-20T06:04:33;30;27;21
24012;PMS7003;12220;50.194;18.948;2023-12-20T06:06:40;30;26;20
24012;PMS7003;12220;50.194;18.948;2023-12-20T06:08:42;24;22;17
24012;PMS7003;12220;50.194;18.948;2023-12-20T06:10:44;26;25;16
24012;PMS7003;12220;50.194;18.948;2023-12-20T06:12:45;37;31;20
24012;PMS7003;12220;50.194;18.948;2023-12-20T06:14:51;33;29;20
24012;PMS7003;12220;50.194;18.948;2023-12-20T06:16:53;29;28;20
24012;PMS7003;12220;50.194;18.948;2023-12-20T06:19:04;30;26;19
24012;PMS7003;12220;50.194;18.948;2023-12-20T06:21:20;32;29;19
24012;PMS7003;12220;50.194;18.948;2023-12-20T06:23:21;30;28;19
24012;PMS7003;12220;50.194;18.948;2023-12-20T06:25:26;25;25;17
24012;PMS7003;12220;50.194;18.948;2023-12-20T06:27:33;27;26;17
24012;PMS7003;12220;50.194;18.948;2023-12-20T06:29:35;31;28;20
24012;PMS7003;12220;50.194;18.948;2023-12-20T06:31:36;28;27;18
24012;PMS7003;12220;50.194;18.948;2023-12-20T06:33:42;28;27;16
24012;PMS7003;12220;50.194;18.948;2023-12-20T06:35:44;41;32;19
24012;PMS7003;12220;50.194;18.948;2023-12-20T06:37:48;25;24;17
24012;PMS7003;12220;50.194;18.948;2023-12-20T06:39:49;28;26;17
24012;PMS7003;12220;50.194;18.948;2023-12-20T06:41:56;34;31;20
24012;PMS7003;12220;50.194;18.948;2023-12-20T06:43:58;27;25;17
24012;PMS7003;12220;50.194;18.948;2023-12-20T06:46:02;33;30;18
24012;PMS7003;12220;50.194;18.948;2023-12-20T06:48:03;35;28;19
24012;PMS7003;12220;50.194;18.948;2023-12-20T06:50:11;30;28;19
24012;PMS7003;12220;50.194;18.948;2023-12-20T06:52:13;32;27;18
24012;PMS7003;12220;50.194;18.948;2023-12-20T06:54:14;34;32;16
24012;PMS7003;12220;50.194;18.948;2023-12-20T06:56:16;26;26;18
24012;PMS7003;12220;50.194;18.948;2023-12-20T06:58:26;35;30;20
24012;PMS7003;12220;50.194;18.948;2023-12-20T07:00:28;34;31;20
24012;PMS7003;12220;50.194;18.948;2023-12-20T07:02:29;36;32;19
24012;PMS7003;12220;50.194;18.948;2023-12-20T07:04:32;30;27;18
24012;PMS7003;12220;50.194;18.948;2023-12-20T07:06:41;28;25;20
24012;PMS7003;12220;50.194;18.948;2023-12-20T07:08:43;29;27;21
24012;PMS7003;12220;50.194;18.948;2023-12-20T07:10:44;32;29;19
24012;PMS7003;12220;50.194;18.948;2023-12-20T07:12:46;28;27;19
24012;PMS7003;12220;50.194;18.948;2023-12-20T07:14:56;29;26;20
24012;PMS7003;12220;50.194;18.948;2023-12-20T07:16:58;31;29;19
24012;PMS7003;12220;50.194;18.948;2023-12-20T07:18:59;38;32;20
24012;PMS7003;12220;50.194;18.948;2023-12-20T07:21:01;35;28;17
24012;PMS7003;12220;50.194;18.948;2023-12-20T07:23:12;35;31;17
24012;PMS7003;12220;50.194;18.948;2023-12-20T07:25:13;27;25;17
24012;PMS7003;12220;50.194;18.948;2023-12-20T07:27:14;33;27;18
24012;PMS7003;12220;50.194;18.948;2023-12-20T07:29:16;43;35;22
24012;PMS7003;12220;50.194;18.948;2023-12-20T07:31:27;40;34;21
24012;PMS7003;12220;50.194;18.948;2023-12-20T07:33:28;39;30;21
24012;PMS7003;12220;50.194;18.948;2023-12-20T07:35:30;40;29;21
24012;PMS7003;12220;50.194;18.948;2023-12-20T07:37:31;26;25;19
24012;PMS7003;12220;50.194;18.948;2023-12-20T07:39:42;37;33;19
24012;PMS7003;12220;50.194;18.948;2023-12-20T07:41:46;34;30;21
24012;PMS7003;12220;50.194;18.948;2023-12-20T07:43:47;40;32;22
24012;PMS7003;12220;50.194;18.948;2023-12-20T07:45:50;39;31;17
24012;PMS7003;12220;50.194;18.948;2023-12-20T07:47:57;36;33;21
24012;PMS7003;12220;50.194;18.948;2023-12-20T07:49:58;39;34;23
24012;PMS7003;12220;50.194;18.948;2023-12-20T07:51:59;37;31;21
24012;PMS7003;12220;50.194;18.948;2023-12-20T07:54:01;32;27;19
24012;PMS7003;12220;50.194;18.948;2023-12-20T07:56:15;40;31;20
24012;PMS7003;12220;50.194;18.948;2023-12-20T07:58:18;34;27;18
24012;PMS7003;12220;50.194;18.948;2023-12-20T08:00:19;28;23;18
24012;PMS7003;12220;50.194;18.948;2023-12-20T08:02:21;34;29;17
24012;PMS7003;12220;50.194;18.948;2023-12-20T08:04:27;29;26;19
24012;PMS7003;12220;50.194;18.948;2023-12-20T08:06:28;40;32;21
24012;PMS7003;12220;50.194;18.948;2023-12-20T08:08:30;29;27;19
24012;PMS7003;12220;50.194;18.948;2023-12-20T08:10:31;27;24;18
24012;PMS7003;12220;50.194;18.948;2023-12-20T08:12:43;29;25;20
24012;PMS7003;12220;50.194;18.948;2023-12-20T08:14:44;28;26;17
24012;PMS7003;12220;50.194;18.948;2023-12-20T08:16:46;34;31;21
24012;PMS7003;12220;50.194;18.948;2023-12-20T08:18:48;35;30;21
24012;PMS7003;12220;50.194;18.948;2023-12-20T08:20:58;24;23;16
24012;PMS7003;12220;50.194;18.948;2023-12-20T08:23:01;20;18;16
24012;PMS7003;12220;50.194;18.948;2023-12-20T08:25:03;25;22;17
24012;PMS7003;12220;50.194;18.948;2023-12-20T08:27:05;26;23;17
24012;PMS7003;12220;50.194;18.948;2023-12-20T08:29:13;24;24;16
24012;PMS7003;12220;50.194;18.948;2023-12-20T08:31:18;33;27;17
24012;PMS7003;12220;50.194;18.948;2023-12-20T08:33:20;30;26;18
24012;PMS7003;12220;50.194;18.948;2023-12-20T08:35:21;36;29;18
24012;PMS7003;12220;50.194;18.948;2023-12-20T08:37:28;30;27;16
24012;PMS7003;12220;50.194;18.948;2023-12-20T08:39:30;27;21;15
24012;PMS7003;12220;50.194;18.948;2023-12-20T08:41:34;30;25;17
24012;PMS7003;12220;50.194;18.948;2023-12-20T08:43:37;25;22;17
24012;PMS7003;12220;50.194;18.948;2023-12-20T08:45:43;22;20;12
24012;PMS7003;12220;50.194;18.948;2023-12-20T08:47:47;17;15;13
24012;PMS7003;12220;50.194;18.948;2023-12-20T08:49:49;20;19;14
24012;PMS7003;12220;50.194;18.948;2023-12-20T08:51:50;19;16;13
24012;PMS7003;12220;50.194;18.948;2023-12-20T08:54:00;28;24;16
24012;PMS7003;12220;50.194;18.948;2023-12-20T08:56:02;25;20;14
24012;PMS7003;12220;50.194;18.948;2023-12-20T08:58:04;34;26;18
24012;PMS7003;12220;50.194;18.948;2023-12-20T09:00:10;25;22;18
24012;PMS7003;12220;50.194;18.948;2023-12-20T09:02:14;34;26;16
24012;PMS7003;12220;50.194;18.948;2023-12-20T09:04:16;24;24;18
24012;PMS7003;12220;50.194;18.948;2023-12-20T09:06:17;29;23;16
24012;PMS7003;12220;50.194;18.948;2023-12-20T09:08:18;25;21;14
24012;PMS7003;12220;50.194;18.948;2023-12-20T09:10:29;41;27;20
24012;PMS7003;12220;50.194;18.948;2023-12-20T09:12:31;26;25;19
24012;PMS7003;12220;50.194;18.948;2023-12-20T09:14:32;34;26;17
24012;PMS7003;12220;50.194;18.948;2023-12-20T09:16:33;25;24;14
24012;PMS7003;12220;50.194;18.948;2023-12-20T09:18:44;24;24;16
24012;PMS7003;12220;50.194;18.948;2023-12-20T09:20:46;24;22;16
24012;PMS7003;12220;50.194;18.948;2023-12-20T09:22:47;37;33;20
24012;PMS7003;12220;50.194;18.948;2023-12-20T09:24:49;37;28;20
24012;PMS7003;12220;50.194;18.948;2023-12-20T09:26:59;26;26;17
24012;PMS7003;12220;50.194;18.948;2023-12-20T09:29:01;35;30;20
24012;PMS7003;12220;50.194;18.948;2023-12-20T09:31:03;38;33;20
24012;PMS7003;12220;50.194;18.948;2023-12-20T09:33:06;35;32;22
24012;PMS7003;12220;50.194;18.948;2023-12-20T09:35:14;47;38;23
24012;PMS7003;12220;50.194;18.948;2023-12-20T09:37:17;35;32;22
24012;PMS7003;12220;50.194;18.948;2023-12-20T09:39:18;45;35;22
24012;PMS7003;12220;50.194;18.948;2023-12-20T09:41:21;43;34;22
24012;PMS7003;12220;50.194;18.948;2023-12-20T09:43:30;43;36;24
24012;PMS7003;12220;50.194;18.948;2023-12-20T09:45:31;35;33;22
24012;PMS7003;12220;50.194;18.948;2023-12-20T09:47:33;36;33;21
24012;PMS7003;12220;50.194;18.948;2023-12-20T09:49:36;30;29;19
24012;PMS7003;12220;50.194;18.948;2023-12-20T09:51:45;33;30;20
24012;PMS7003;12220;50.194;18.948;2023-12-20T09:53:50;34;32;20
24012;PMS7003;12220;50.194;18.948;2023-12-20T09:55:58;42;34;22
24012;PMS7003;12220;50.194;18.948;2023-12-20T09:58:03;39;32;20
24012;PMS7003;12220;50.194;18.948;2023-12-20T10:00:06;44;33;22
24012;PMS7003;12220;50.194;18.948;2023-12-20T10:02:11;39;33;21
24012;PMS7003;12220;50.194;18.948;2023-12-20T10:04:17;48;37;21
24012;PMS7003;12220;50.194;18.948;2023-12-20T10:06:23;38;32;21
24012;PMS7003;12220;50.194;18.948;2023-12-20T10:08:24;37;32;21
24012;PMS7003;12220;50.194;18.948;2023-12-20T10:10:26;45;30;20
24012;PMS7003;12220;50.194;18.948;2023-12-20T10:12:28;33;28;20
24012;PMS7003;12220;50.194;18.948;2023-12-20T10:14:32;40;32;20
24012;PMS7003;12220;50.194;18.948;2023-12-20T10:16:38;39;32;21
24012;PMS7003;12220;50.194;18.948;2023-12-20T10:18:39;41;33;21
24012;PMS7003;12220;50.194;18.948;2023-12-20T10:20:41;39;34;23
24012;PMS7003;12220;50.194;18.948;2023-12-20T10:22:43;36;32;21
24012;PMS7003;12220;50.194;18.948;2023-12-20T10:24:53;41;30;21
24012;PMS7003;12220;50.194;18.948;2023-12-20T10:29:08;32;29;20
24012;PMS7003;12220;50.194;18.948;2023-12-20T10:31:12;31;29;20
24012;PMS7003;12220;50.194;18.948;2023-12-20T10:33:26;36;33;22
24012;PMS7003;12220;50.194;18.948;2023-12-20T10:35:34;31;25;18
24012;PMS7003;12220;50.194;18.948;2023-12-20T10:37:37;25;23;16
24012;PMS7003;12220;50.194;18.948;2023-12-20T10:39:39;41;35;22
24012;PMS7003;12220;50.194;18.948;2023-12-20T10:41:46;27;27;19
24012;PMS7003;12220;50.194;18.948;2023-12-20T10:43:51;45;34;20
24012;PMS7003;12220;50.194;18.948;2023-12-20T10:45:53;41;33;23
24012;PMS7003;12220;50.194;18.948;2023-12-20T10:47:54;41;36;23
24012;PMS7003;12220;50.194;18.948;2023-12-20T10:50:01;44;36;22
24012;PMS7003;12220;50.194;18.948;2023-12-20T10:52:06;38;33;22
24012;PMS7003;12220;50.194;18.948;2023-12-20T10:54:08;39;33;22
24012;PMS7003;12220;50.194;18.948;2023-12-20T10:56:10;35;30;19
24012;PMS7003;12220;50.194;18.948;2023-12-20T10:58:16;35;31;21
24012;PMS7003;12220;50.194;18.948;2023-12-20T11:00:23;42;34;21
24012;PMS7003;12220;50.194;18.948;2023-12-20T11:02:27;42;34;20
24012;PMS7003;12220;50.194;18.948;2023-12-20T11:04:36;34;31;19
24012;PMS7003;12220;50.194;18.948;2023-12-20T11:06:45;21;21;10
24012;PMS7003;12220;50.194;18.948;2023-12-20T11:11:14;26;24;15
24012;PMS7003;12220;50.194;18.948;2023-12-20T11:13:28;31;26;18
24012;PMS7003;12220;50.194;18.948;2023-12-20T11:15:40;38;33;22
24012;PMS7003;12220;50.194;18.948;2023-12-20T11:17:44;36;31;20
24012;PMS7003;12220;50.194;18.948;2023-12-20T11:22:04;34;31;22
24012;PMS7003;12220;50.194;18.948;2023-12-20T11:24:07;29;26;18
24012;PMS7003;12220;50.194;18.948;2023-12-20T11:26:16;35;29;17
24012;PMS7003;12220;50.194;18.948;2023-12-20T11:28:38;36;32;20
24012;PMS7003;12220;50.194;18.948;2023-12-20T11:30:44;36;31;20
24012;PMS7003;12220;50.194;18.948;2023-12-20T11:32:48;37;32;20
24012;PMS7003;12220;50.194;18.948;2023-12-20T11:36:59;39;32;22
24012;PMS7003;12220;50.194;18.948;2023-12-20T11:39:02;40;33;23
24012;PMS7003;12220;50.194;18.948;2023-12-20T11:41:10;32;28;18
24012;PMS7003;12220;50.194;18.948;2023-12-20T11:43:12;39;33;22
24012;PMS7003;12220;50.194;18.948;2023-12-20T11:45:24;39;32;20
24012;PMS7003;12220;50.194;18.948;2023-12-20T11:47:37;41;33;22
24012;PMS7003;12220;50.194;18.948;2023-12-20T11:49:38;31;29;20
24012;PMS7003;12220;50.194;18.948;2023-12-20T11:51:41;33;27;19
24012;PMS7003;12220;50.194;18.948;2023-12-20T11:53:44;36;31;20
24012;PMS7003;12220;50.194;18.948;2023-12-20T11:55:52;25;24;17
24012;PMS7003;12220;50.194;18.948;2023-12-20T11:57:55;41;32;19
24012;PMS7003;12220;50.194;18.948;2023-12-20T11:59:57;33;29;20
24012;PMS7003;12220;50.194;18.948;2023-12-20T12:01:59;39;32;22
24012;PMS7003;12220;50.194;18.948;2023-12-20T12:04:07;36;31;21
24012;PMS7003;12220;50.194;18.948;2023-12-20T12:06:09;40;34;22
24012;PMS7003;12220;50.194;18.948;2023-12-20T12:08:10;37;32;22
24012;PMS7003;12220;50.194;18.948;2023-12-20T12:10:12;30;28;19
24012;PMS7003;12220;50.194;18.948;2023-12-20T12:12:22;28;24;15
24012;PMS7003;12220;50.194;18.948;2023-12-20T12:14:27;23;21;14
24012;PMS7003;12220;50.194;18.948;2023-12-20T12:16:29;26;21;14
24012;PMS7003;12220;50.194;18.948;2023-12-20T12:18:30;29;21;14
24012;PMS7003;12220;50.194;18.948;2023-12-20T12:20:37;30;22;15
24012;PMS7003;12220;50.194;18.948;2023-12-20T12:22:39;25;24;18
24012;PMS7003;12220;50.194;18.948;2023-12-20T12:24:40;27;23;14
24012;PMS7003;12220;50.194;18.948;2023-12-20T12:26:42;28;27;16
24012;PMS7003;12220;50.194;18.948;2023-12-20T12:28:52;34;31;20
24012;PMS7003;12220;50.194;18.948;2023-12-20T12:33:01;27;25;19
24012;PMS7003;12220;50.194;18.948;2023-12-20T12:35:04;37;32;19
24012;PMS7003;12220;50.194;18.948;2023-12-20T12:37:10;29;23;15
24012;PMS7003;12220;50.194;18.948;2023-12-20T12:41:19;33;31;20
24012;PMS7003;12220;50.194;18.948;2023-12-20T12:43:20;29;27;19
24012;PMS7003;12220;50.194;18.948;2023-12-20T12:45:24;27;27;19
24012;PMS7003;12220;50.194;18.948;2023-12-20T12:47:28;25;22;16
24012;PMS7003;12220;50.194;18.948;2023-12-20T12:49:30;45;33;21
24012;PMS7003;12220;50.194;18.948;2023-12-20T12:51:31;37;31;20
24012;PMS7003;12220;50.194;18.948;2023-12-20T12:56:07;27;25;18
24012;PMS7003;12220;50.194;18.948;2023-12-20T12:58:22;44;33;21
24012;PMS7003;12220;50.194;18.948;2023-12-20T13:00:26;38;33;21
24012;PMS7003;12220;50.194;18.948;2023-12-20T13:02:28;28;26;20
24012;PMS7003;12220;50.194;18.948;2023-12-20T13:04:31;32;27;20
24012;PMS7003;12220;50.194;18.948;2023-12-20T13:06:37;31;30;20
24012;PMS7003;12220;50.194;18.948;2023-12-20T13:08:39;43;35;24
24012;PMS7003;12220;50.194;18.948;2023-12-20T13:10:41;33;30;20
24012;PMS7003;12220;50.194;18.948;2023-12-20T13:12:42;18;18;8
24012;PMS7003;12220;50.194;18.948;2023-12-20T13:14:52;32;30;19
24012;PMS7003;12220;50.194;18.948;2023-12-20T13:16:54;37;33;20
24012;PMS7003;12220;50.194;18.948;2023-12-20T13:18:56;37;31;19
24012;PMS7003;12220;50.194;18.948;2023-12-20T13:21:00;36;31;22
24012;PMS7003;12220;50.194;18.948;2023-12-20T13:23:07;38;31;20
24012;PMS7003;12220;50.194;18.948;2023-12-20T13:25:12;27;25;17
24012;PMS7003;12220;50.194;18.948;2023-12-20T13:27:13;44;34;23
24012;PMS7003;12220;50.194;18.948;2023-12-20T13:29:15;41;34;23